Time;durP1;ratioP1;P1;durP2;ratioP2;P2;SDS_P1;SDS_P2;PMS_P1;PMS_P2;Temp;Humidity;BMP_temperature;BMP_pressure;BME280_temperature;BME280_humidity;BME280_pressure;Samples;Min_cycle;Max_cycle;Signal;HPM_P1;HPM_P2
2022/01/14 00:02:18;;;;;;;0.50;0.50;;;-0.40;99.90;;;;;;5024848;28;20108;-78
2022/01/14 00:04:44;;;;;;;3.42;3.15;;;-0.40;99.90;;;;;;5038000;28;20154;-76
2022/01/14 00:07:11;;;;;;;1.38;1.27;;;-0.50;99.90;;;;;;5052833;28;20028;-76
2022/01/14 00:09:38;;;;;;;0.88;0.88;;;-0.80;99.90;;;;;;5034783;28;20025;-77
2022/01/14 00:12:11;;;;;;;2.58;1.10;;;-0.60;99.90;;;;;;5018188;28;20021;-76
2022/01/14 00:14:45;;;;;;;0.75;0.73;;;-0.70;99.90;;;;;;5052721;28;20554;-77
2022/01/14 00:17:14;;;;;;;0.40;0.40;;;-0.50;99.90;;;;;;5034807;28;20086;-76
2022/01/14 00:19:41;;;;;;;0.40;0.40;;;-0.70;99.90;;;;;;5052641;28;20449;-76
2022/01/14 00:22:13;;;;;;;12.88;5.28;;;-0.70;99.90;;;;;;5034600;28;20096;-76
2022/01/14 00:35:24;;;;;;;;;;;-1.00;99.90;;;;;;5052732;28;20027;-76
2022/01/14 00:37:50;;;;;;;1.38;1.23;;;-1.00;99.90;;;;;;5018012;28;19904;-77
2022/01/14 00:40:15;;;;;;;0.82;0.82;;;-1.10;99.90;;;;;;5034392;28;20047;-77
2022/01/14 00:42:41;;;;;;;0.60;0.60;;;-1.00;99.90;;;;;;5051695;28;20025;-77
2022/01/14 00:45:07;;;;;;;4.40;4.10;;;-1.10;99.90;;;;;;5034264;28;20389;-77
2022/01/14 00:47:37;;;;;;;0.50;0.50;;;-1.00;99.90;;;;;;5052134;28;20100;-77
2022/01/14 00:50:11;;;;;;;2.72;2.38;;;-1.10;99.90;;;;;;5052085;28;20430;-77
2022/01/14 00:52:39;;;;;;;0.50;0.50;;;-1.00;99.90;;;;;;5051910;28;20025;-76
2022/01/14 00:55:07;;;;;;;0.50;0.50;;;-1.00;99.90;;;;;;5052027;28;20112;-76
2022/01/14 01:00:23;;;;;;;0.30;0.30;;;-0.50;99.90;;;;;;5033989;28;20021;-76
2022/01/14 01:02:48;;;;;;;0.50;0.50;;;-0.50;99.90;;;;;;5051879;28;20067;-77
2022/01/14 01:05:16;;;;;;;0.40;0.40;;;-0.50;99.90;;;;;;5033913;28;20060;-76
2022/01/14 01:07:45;;;;;;;0.75;0.75;;;-0.50;99.90;;;;;;5033906;28;20055;-76
2022/01/14 01:10:11;;;;;;;0.47;0.47;;;-0.40;99.90;;;;;;5033884;28;20025;-76
2022/01/14 01:15:12;;;;;;;0.50;0.50;;;-0.50;99.90;;;;;;5051896;28;20025;-77
2022/01/14 01:17:38;;;;;;;0.77;0.77;;;-0.50;99.90;;;;;;5051845;28;20032;-77
2022/01/14 01:20:18;;;;;;;2.15;1.60;;;-0.50;99.90;;;;;;5051785;28;20106;-77
2022/01/14 01:22:53;;;;;;;0.40;0.40;;;-0.70;99.90;;;;;;5017403;28;20116;-77
2022/01/14 01:25:23;;;;;;;0.50;0.50;;;-0.80;99.90;;;;;;5051605;28;20025;-75
2022/01/14 01:27:51;;;;;;;0.60;0.60;;;-0.80;99.90;;;;;;5033868;28;20032;-76
2022/01/14 01:32:56;;;;;;;0.50;0.50;;;-0.60;99.90;;;;;;5051462;28;20480;-77
2022/01/14 01:35:22;;;;;;;0.40;0.40;;;-0.80;99.90;;;;;;5051692;28;20040;-75
2022/01/14 01:37:47;;;;;;;0.43;0.43;;;-0.90;99.90;;;;;;5033799;28;20388;-75
2022/01/14 01:40:14;;;;;;;0.85;0.85;;;-1.00;99.90;;;;;;5051670;28;20108;-76
2022/01/14 01:42:44;;;;;;;0.35;0.35;;;-1.10;99.90;;;;;;5033641;28;20029;-76
2022/01/14 01:45:12;;;;;;;15.93;4.25;;;-0.90;99.90;;;;;;5033834;28;20116;-77
2022/01/14 01:47:38;;;;;;;0.93;0.93;;;-0.80;99.90;;;;;;5051484;28;20214;-76
2022/01/14 01:50:14;;;;;;;0.40;0.40;;;-0.90;99.90;;;;;;5051533;28;20499;-77
2022/01/14 01:52:40;;;;;;;0.40;0.40;;;-0.90;99.90;;;;;;5033592;28;20033;-76
2022/01/14 01:55:07;;;;;;;0.40;0.40;;;-0.90;99.90;;;;;;5035869;28;20425;-77
2022/01/14 01:57:33;;;;;;;0.43;0.43;;;-0.80;99.90;;;;;;5037413;28;20025;-76
2022/01/14 01:59:59;;;;;;;0.32;0.32;;;-0.60;99.90;;;;;;5037237;28;20104;-76
2022/01/14 02:02:26;;;;;;;0.40;0.40;;;-0.50;99.90;;;;;;5055036;28;20384;-76
2022/01/14 02:04:52;;;;;;;0.85;0.85;;;-0.40;99.90;;;;;;5037115;28;20021;-77
2022/01/14 02:07:18;;;;;;;0.40;0.40;;;-0.40;99.90;;;;;;5054918;28;20104;-76
2022/01/14 02:09:43;;;;;;;0.40;0.40;;;-0.40;99.90;;;;;;5037111;28;20032;-77
2022/01/14 02:12:11;;;;;;;0.40;0.40;;;-0.50;99.90;;;;;;5054855;28;20071;-76
2022/01/14 02:17:28;;;;;;;0.43;0.43;;;-0.40;99.90;;;;;;5054854;28;20103;-76
2022/01/14 02:22:57;;;;;;;0.50;0.50;;;0.00;99.90;;;;;;5054617;28;20086;-76
2022/01/14 02:25:34;;;;;;;2.33;1.98;;;0.20;99.90;;;;;;5036909;28;20036;-76
2022/01/14 02:28:10;;;;;;;0.40;0.40;;;0.30;99.90;;;;;;5054677;28;20055;-76
2022/01/14 02:30:39;;;;;;;0.40;0.40;;;0.40;99.90;;;;;;5036917;28;20362;-76
2022/01/14 02:33:06;;;;;;;0.32;0.32;;;0.60;99.90;;;;;;5036519;28;20112;-77
2022/01/14 02:35:31;;;;;;;0.57;0.57;;;0.50;99.90;;;;;;5054491;28;20024;-76
2022/01/14 02:37:58;;;;;;;4.28;3.97;;;0.50;99.90;;;;;;5036648;28;20441;-75
2022/01/14 02:40:25;;;;;;;0.30;0.30;;;0.50;99.90;;;;;;5020101;28;20493;-77
2022/01/14 02:42:51;;;;;;;0.50;0.50;;;0.50;99.90;;;;;;5036602;28;20480;-76
2022/01/14 02:45:18;;;;;;;0.60;0.60;;;0.40;99.90;;;;;;5036477;28;20025;-77
2022/01/14 02:47:45;;;;;;;0.50;0.50;;;0.40;99.90;;;;;;5036432;28;20118;-77
2022/01/14 02:50:16;;;;;;;0.43;0.43;;;0.40;99.90;;;;;;5036537;28;20025;-76
2022/01/14 02:52:55;;;;;;;0.60;0.60;;;0.40;99.90;;;;;;5054502;28;20358;-77
2022/01/14 02:55:27;;;;;;;0.47;0.47;;;0.20;99.90;;;;;;5036446;28;20029;-76
2022/01/14 02:57:54;;;;;;;0.40;0.40;;;0.00;99.90;;;;;;5036248;28;20477;-77
2022/01/14 03:00:24;;;;;;;0.40;0.40;;;-0.10;99.90;;;;;;5054337;28;20536;-76
2022/01/14 03:02:51;;;;;;;0.30;0.30;;;-0.20;99.90;;;;;;5036224;28;20104;-76
2022/01/14 03:05:19;;;;;;;0.45;0.45;;;0.00;99.90;;;;;;5053543;28;20392;-77
2022/01/14 03:07:45;;;;;;;2.35;2.20;;;0.00;99.90;;;;;;5054248;28;20021;-76
2022/01/14 03:10:14;;;;;;;0.95;0.95;;;0.00;99.90;;;;;;5036144;28;20017;-77
2022/01/14 03:12:41;;;;;;;0.40;0.40;;;0.00;99.90;;;;;;5053764;28;20044;-77
2022/01/14 03:15:08;;;;;;;0.40;0.40;;;0.00;99.90;;;;;;5053785;28;20079;-76
2022/01/14 03:17:34;;;;;;;0.50;0.50;;;0.10;99.90;;;;;;5036103;28;20032;-77
2022/01/14 03:20:01;;;;;;;0.40;0.40;;;0.30;99.90;;;;;;5053699;28;20033;-76
2022/01/14 03:22:36;;;;;;;2.30;2.10;;;0.40;99.90;;;;;;5035694;28;20029;-76
2022/01/14 03:27:52;;;;;;;0.70;0.70;;;0.60;99.90;;;;;;5053665;28;20383;-77
2022/01/14 03:30:18;;;;;;;0.40;0.40;;;0.80;99.90;;;;;;5019135;28;20025;-77
2022/01/14 03:32:44;;;;;;;0.50;0.50;;;0.80;99.90;;;;;;5035440;28;20032;-77
2022/01/14 03:35:12;;;;;;;0.55;0.55;;;0.70;99.90;;;;;;5053373;28;20033;-76
2022/01/14 03:37:37;;;;;;;0.40;0.40;;;0.40;99.90;;;;;;5035740;28;20025;-76
2022/01/14 03:40:06;;;;;;;0.40;0.40;;;0.30;99.90;;;;;;5053598;28;20032;-76
2022/01/14 03:42:32;;;;;;;2.63;1.85;;;0.00;99.90;;;;;;5053238;28;20028;-77
2022/01/14 03:44:58;;;;;;;0.35;0.35;;;0.00;99.90;;;;;;5053046;28;20396;-77
2022/01/14 03:47:24;;;;;;;0.40;0.40;;;0.00;99.90;;;;;;5035372;28;20021;-76
2022/01/14 03:49:49;;;;;;;0.30;0.30;;;-0.20;99.90;;;;;;5053079;28;20017;-76
2022/01/14 03:52:16;;;;;;;0.32;0.32;;;-0.10;99.90;;;;;;5035248;28;20036;-76
2022/01/14 03:54:43;;;;;;;0.35;0.35;;;-0.10;99.90;;;;;;5035213;28;20108;-76
2022/01/14 03:57:08;;;;;;;0.40;0.40;;;0.00;99.90;;;;;;5035060;28;20029;-76
2022/01/14 03:59:34;;;;;;;1.10;0.60;;;0.00;99.90;;;;;;5034982;28;20029;-76
2022/01/14 04:02:00;;;;;;;0.40;0.40;;;-0.20;99.90;;;;;;5034859;28;20037;-76
2022/01/14 04:04:26;;;;;;;0.30;0.30;;;-0.40;99.90;;;;;;5034974;28;20040;-77
2022/01/14 04:06:51;;;;;;;0.30;0.30;;;-0.40;99.90;;;;;;5034795;28;20055;-76
2022/01/14 04:09:17;;;;;;;0.40;0.40;;;-0.50;99.90;;;;;;5018449;28;20163;-77
2022/01/14 04:11:44;;;;;;;0.40;0.40;;;-0.60;99.90;;;;;;5034746;28;20078;-77
2022/01/14 04:16:52;;;;;;;0.40;0.40;;;-0.50;99.90;;;;;;5052052;28;20025;-76
2022/01/14 04:19:18;;;;;;;0.40;0.40;;;-0.50;99.90;;;;;;5034759;28;20463;-76
2022/01/14 04:21:44;;;;;;;0.50;0.50;;;-0.40;99.90;;;;;;5034575;28;20116;-76
2022/01/14 04:24:10;;;;;;;1.17;1.17;;;-0.60;99.90;;;;;;5052507;28;20365;-76
2022/01/14 04:26:36;;;;;;;0.40;0.40;;;-0.70;99.90;;;;;;5018059;28;20476;-76
2022/01/14 04:29:02;;;;;;;0.43;0.43;;;-0.70;99.90;;;;;;5052417;28;20099;-76
2022/01/14 04:31:28;;;;;;;0.40;0.40;;;-0.50;99.90;;;;;;5017876;28;20036;-76
2022/01/14 04:33:54;;;;;;;0.40;0.40;;;-0.60;99.90;;;;;;5034441;28;20037;-77
2022/01/14 04:36:20;;;;;;;0.40;0.40;;;-0.80;99.90;;;;;;5052309;28;20739;-76
2022/01/14 04:38:45;;;;;;;0.45;0.45;;;-0.80;99.90;;;;;;5017909;28;20120;-76
2022/01/14 04:41:12;;;;;;;0.40;0.40;;;-0.60;99.90;;;;;;5034312;28;20504;-76
2022/01/14 04:43:38;;;;;;;0.40;0.40;;;-0.60;99.90;;;;;;5017908;28;20516;-77
2022/01/14 04:48:36;;;;;;;0.47;0.47;;;-0.50;99.90;;;;;;5034179;28;20021;-76
2022/01/14 04:51:07;;;;;;;0.40;0.40;;;-0.50;99.90;;;;;;5034579;28;20419;-77
2022/01/14 04:53:34;;;;;;;0.45;0.45;;;-0.30;99.90;;;;;;5034365;28;20511;-77
2022/01/14 04:56:00;;;;;;;0.40;0.40;;;-0.30;99.90;;;;;;5017637;28;20029;-77
2022/01/14 04:58:27;;;;;;;0.45;0.45;;;-0.30;99.90;;;;;;5017718;28;20032;-77
2022/01/14 05:00:54;;;;;;;0.40;0.40;;;-0.40;99.90;;;;;;5051934;28;20044;-76
2022/01/14 05:03:20;;;;;;;0.40;0.40;;;-0.30;99.90;;;;;;5051907;28;20423;-77
2022/01/14 05:05:49;;;;;;;0.40;0.40;;;-0.30;99.90;;;;;;5033903;28;20029;-77
2022/01/14 05:08:22;;;;;;;0.40;0.40;;;-0.30;99.90;;;;;;5051967;28;20040;-76
2022/01/14 05:11:01;;;;;;;0.50;0.50;;;-0.20;99.90;;;;;;5034151;28;20105;-77
2022/01/14 05:13:27;;;;;;;0.35;0.35;;;0.00;99.90;;;;;;5033976;28;20112;-76
2022/01/14 05:15:53;;;;;;;0.30;0.30;;;0.00;99.90;;;;;;5033790;28;20060;-75
2022/01/14 05:18:19;;;;;;;0.40;0.40;;;0.00;99.90;;;;;;5033937;28;20025;-76
2022/01/14 05:20:45;;;;;;;0.30;0.30;;;-0.10;99.90;;;;;;5033852;28;20071;-76
2022/01/14 05:23:11;;;;;;;0.50;0.50;;;0.00;99.90;;;;;;5051737;28;20025;-77
2022/01/14 05:25:36;;;;;;;0.40;0.40;;;0.00;99.90;;;;;;5051664;28;20021;-77
2022/01/14 05:28:02;;;;;;;0.40;0.40;;;-0.10;99.90;;;;;;5034535;28;20108;-77
2022/01/14 05:30:28;;;;;;;0.40;0.40;;;-0.10;99.90;;;;;;5055632;28;20532;-77
2022/01/14 05:32:54;;;;;;;0.30;0.30;;;0.00;99.90;;;;;;5051214;23;20044;-73
2022/01/14 05:35:25;;;;;;;0.40;0.40;;;0.00;99.90;;;;;;5055431;28;20029;-74
2022/01/14 05:37:51;;;;;;;0.40;0.40;;;0.00;99.90;;;;;;5055609;28;20068;-74
2022/01/14 05:40:19;;;;;;;1.48;1.38;;;-0.20;99.90;;;;;;5055571;28;20068;-74
2022/01/14 05:42:45;;;;;;;0.57;0.57;;;-0.30;99.90;;;;;;5055386;28;20100;-74
2022/01/14 05:45:13;;;;;;;0.50;0.50;;;-0.20;99.90;;;;;;5055497;28;20044;-74
2022/01/14 05:47:39;;;;;;;0.50;0.50;;;-0.30;99.90;;;;;;5037510;28;20036;-74
2022/01/14 05:50:09;;;;;;;10.57;4.10;;;-0.20;99.90;;;;;;5055505;28;20029;-74
2022/01/14 05:52:35;;;;;;;0.40;0.40;;;-0.20;99.90;;;;;;5037447;28;20025;-74
2022/01/14 05:55:01;;;;;;;1.70;1.63;;;-0.20;99.90;;;;;;5055310;28;20075;-75
2022/01/14 05:57:27;;;;;;;0.50;0.50;;;-0.20;99.90;;;;;;5037445;28;20083;-75
2022/01/14 05:59:53;;;;;;;0.60;0.60;;;-0.20;99.90;;;;;;5038048;28;20596;-75
2022/01/14 06:02:19;;;;;;;0.43;0.43;;;-0.20;99.90;;;;;;5037634;28;20484;-74
2022/01/14 06:04:45;;;;;;;0.43;0.43;;;-0.30;99.90;;;;;;5056223;28;20036;-78
2022/01/14 06:07:11;;;;;;;0.70;0.70;;;-0.30;99.90;;;;;;5022686;28;20539;-74
2022/01/14 06:09:37;;;;;;;0.40;0.40;;;-0.40;99.90;;;;;;5056231;28;20104;-74
2022/01/14 06:12:04;;;;;;;0.70;0.70;;;-0.50;99.90;;;;;;5020804;28;20020;-74
2022/01/14 06:14:30;;;;;;;0.45;0.45;;;-0.40;99.90;;;;;;5055026;28;20025;-74
2022/01/14 06:16:56;;;;;;;0.57;0.57;;;-0.40;99.90;;;;;;5037478;28;20020;-74
2022/01/14 06:19:23;;;;;;;0.30;0.30;;;-0.40;99.90;;;;;;5021257;28;20028;-74
2022/01/14 06:21:49;;;;;;;0.43;0.43;;;-0.40;99.90;;;;;;5037207;28;20033;-75
2022/01/14 06:24:15;;;;;;;0.40;0.40;;;-0.20;99.90;;;;;;5055098;28;20021;-73
2022/01/14 06:26:40;;;;;;;0.50;0.50;;;-0.20;99.90;;;;;;5054822;28;20021;-74
2022/01/14 06:29:06;;;;;;;0.60;0.60;;;-0.20;99.90;;;;;;5037011;28;20423;-73
2022/01/14 06:31:32;;;;;;;0.38;0.38;;;-0.20;99.90;;;;;;5055104;28;20078;-74
2022/01/14 06:33:57;;;;;;;2.35;2.25;;;-0.10;99.90;;;;;;5054615;28;20040;-75
2022/01/14 06:36:24;;;;;;;19.15;17.58;;;-0.10;99.90;;;;;;5055077;28;20108;-74
2022/01/14 06:38:49;;;;;;;0.80;0.80;;;0.00;99.90;;;;;;5020351;28;20033;-74
2022/01/14 06:41:15;;;;;;;0.40;0.40;;;0.00;99.90;;;;;;5054336;28;20025;-76
2022/01/14 06:43:41;;;;;;;0.40;0.40;;;-0.10;99.90;;;;;;5020189;28;20037;-74
2022/01/14 06:46:07;;;;;;;0.85;0.85;;;-0.20;99.90;;;;;;5037263;28;20033;-75
2022/01/14 06:48:34;;;;;;;0.40;0.40;;;-0.20;99.90;;;;;;5055061;28;20068;-75
2022/01/14 06:51:00;;;;;;;0.40;0.40;;;-0.10;99.90;;;;;;5054665;28;20136;-75
2022/01/14 06:53:25;;;;;;;5.88;0.93;;;-0.10;99.90;;;;;;5054525;28;20021;-75
2022/01/14 06:55:51;;;;;;;0.47;0.47;;;0.00;99.90;;;;;;5055005;28;20033;-75
2022/01/14 06:58:17;;;;;;;0.50;0.50;;;0.00;99.90;;;;;;5055473;28;20053;-73
2022/01/14 07:00:43;;;;;;;0.73;0.73;;;-0.10;99.90;;;;;;5038113;28;20079;-75
2022/01/14 07:03:08;;;;;;;1.33;1.23;;;-0.10;99.90;;;;;;5054649;28;20109;-75
2022/01/14 07:05:34;;;;;;;0.65;0.65;;;-0.10;99.90;;;;;;5036628;28;20060;-73
2022/01/14 07:08:00;;;;;;;0.77;0.77;;;-0.10;99.90;;;;;;5036658;28;20047;-74
2022/01/14 07:10:26;;;;;;;0.40;0.40;;;0.00;99.90;;;;;;5037200;28;20462;-75
2022/01/14 07:12:52;;;;;;;0.40;0.40;;;0.00;99.90;;;;;;5036220;28;20029;-74
2022/01/14 07:15:18;;;;;;;0.77;0.77;;;-0.10;99.90;;;;;;5035198;28;20017;-74
2022/01/14 07:17:44;;;;;;;3.03;0.98;;;-0.10;99.90;;;;;;5054016;28;20017;-74
2022/01/14 07:20:13;;;;;;;0.40;0.40;;;-0.20;99.90;;;;;;5054687;28;20056;-75
2022/01/14 07:22:41;;;;;;;4.40;2.05;;;-0.20;99.90;;;;;;5035684;28;20396;-75
2022/01/14 07:25:08;;;;;;;0.60;0.60;;;-0.20;99.90;;;;;;5054563;28;20373;-75
2022/01/14 07:27:34;;;;;;;0.30;0.30;;;-0.10;99.90;;;;;;5053967;28;20468;-75
2022/01/14 07:30:00;;;;;;;0.50;0.50;;;-0.10;99.90;;;;;;5053769;28;20032;-75
2022/01/14 07:32:26;;;;;;;0.88;0.88;;;0.00;99.90;;;;;;5053558;28;20388;-77
2022/01/14 07:34:52;;;;;;;0.30;0.30;;;0.00;99.90;;;;;;5055086;28;20092;-77
2022/01/14 07:37:18;;;;;;;5.47;2.90;;;0.20;99.90;;;;;;5036350;28;20036;-76
2022/01/14 07:39:44;;;;;;;0.43;0.43;;;0.20;99.90;;;;;;5036630;28;20025;-77
2022/01/14 07:42:10;;;;;;;0.40;0.40;;;0.20;99.90;;;;;;5036280;28;20032;-77
2022/01/14 07:44:38;;;;;;;0.40;0.40;;;0.20;99.90;;;;;;5053882;28;20025;-77
2022/01/14 07:47:04;;;;;;;0.80;0.80;;;0.30;99.90;;;;;;5035493;28;20510;-75
2022/01/14 07:49:29;;;;;;;0.40;0.40;;;0.30;99.90;;;;;;5035803;28;20405;-76
2022/01/14 07:51:55;;;;;;;0.65;0.65;;;0.20;99.90;;;;;;5052270;28;20022;-76
2022/01/14 07:54:21;;;;;;;0.55;0.55;;;0.20;99.90;;;;;;5053523;28;20028;-77
2022/01/14 07:56:51;;;;;;;0.40;0.40;;;0.30;99.90;;;;;;5053319;28;20025;-76
2022/01/14 07:59:21;;;;;;;0.40;0.40;;;0.40;99.90;;;;;;5035070;28;20048;-77
2022/01/14 08:01:48;;;;;;;0.60;0.60;;;0.60;99.90;;;;;;5053050;28;20028;-77
2022/01/14 08:04:15;;;;;;;0.30;0.30;;;0.70;99.90;;;;;;5053605;28;20435;-77
2022/01/14 08:06:46;;;;;;;0.65;0.65;;;0.70;99.90;;;;;;5035040;28;20083;-77
2022/01/14 08:09:13;;;;;;;2.95;2.83;;;0.70;99.90;;;;;;5035438;28;20104;-77
2022/01/14 08:11:39;;;;;;;1.65;1.55;;;0.90;99.90;;;;;;5018556;28;20055;-77
2022/01/14 08:14:05;;;;;;;0.50;0.50;;;0.80;99.90;;;;;;5052731;28;20021;-76
2022/01/14 08:16:31;;;;;;;0.50;0.50;;;0.80;99.90;;;;;;5034815;28;20033;-77
2022/01/14 08:18:57;;;;;;;0.30;0.30;;;0.80;99.90;;;;;;5051723;28;20017;-76
2022/01/14 08:21:22;;;;;;;2.30;2.17;;;0.80;99.90;;;;;;5023949;28;20441;-76
2022/01/14 08:23:48;;;;;;;0.75;0.75;;;0.90;99.90;;;;;;5050847;28;20076;-71
2022/01/14 08:26:14;;;;;;;1.23;1.23;;;1.10;99.90;;;;;;5021482;28;20503;-75
2022/01/14 08:28:40;;;;;;;1.77;1.73;;;1.10;99.90;;;;;;5053461;28;20143;-74
2022/01/14 08:31:06;;;;;;;0.45;0.45;;;1.20;99.90;;;;;;5053267;28;20049;-74
2022/01/14 08:33:32;;;;;;;0.57;0.57;;;1.10;99.90;;;;;;5036190;28;20091;-74
2022/01/14 08:35:57;;;;;;;0.70;0.70;;;1.20;99.90;;;;;;5035283;28;20051;-74
2022/01/14 08:38:24;;;;;;;0.63;0.63;;;1.20;99.90;;;;;;5054756;28;20029;-75
2022/01/14 08:40:56;;;;;;;0.40;0.40;;;1.20;99.90;;;;;;5052909;28;20474;-77
2022/01/14 08:43:22;;;;;;;4.72;1.08;;;1.30;99.90;;;;;;5018372;28;20029;-73
2022/01/14 08:45:48;;;;;;;0.50;0.50;;;1.40;99.90;;;;;;5052364;28;20552;-74
2022/01/14 08:48:13;;;;;;;0.40;0.40;;;1.50;99.90;;;;;;5053095;28;20032;-74
2022/01/14 08:50:40;;;;;;;0.30;0.30;;;1.60;99.90;;;;;;5053605;28;20029;-73
2022/01/14 08:53:08;;;;;;;0.30;0.30;;;1.60;99.90;;;;;;5053190;28;20071;-75
2022/01/14 08:55:35;;;;;;;0.30;0.30;;;1.70;99.90;;;;;;5035223;28;20083;-74
2022/01/14 08:58:03;;;;;;;0.40;0.40;;;1.90;99.90;;;;;;5034455;28;20025;-73
2022/01/14 09:00:29;;;;;;;0.45;0.45;;;1.90;99.90;;;;;;5019496;28;20440;-74
2022/01/14 09:02:55;;;;;;;0.45;0.45;;;2.00;99.90;;;;;;5053253;28;20021;-74
2022/01/14 09:05:22;;;;;;;0.30;0.30;;;2.20;99.90;;;;;;5018619;28;20626;-74
2022/01/14 09:07:51;;;;;;;0.30;0.30;;;2.30;99.90;;;;;;5035640;28;20118;-77
2022/01/14 09:10:19;;;;;;;0.57;0.57;;;2.50;99.90;;;;;;5017912;28;20036;-75
2022/01/14 09:12:46;;;;;;;0.40;0.40;;;2.50;99.90;;;;;;5034508;28;20029;-76
2022/01/14 09:15:12;;;;;;;0.30;0.30;;;2.70;99.90;;;;;;5035019;28;20044;-75
2022/01/14 09:17:40;;;;;;;0.30;0.30;;;2.80;99.90;;;;;;5052494;28;20075;-74
2022/01/14 09:20:07;;;;;;;0.20;0.20;;;3.00;99.90;;;;;;5034357;28;20025;-77
2022/01/14 09:22:35;;;;;;;0.30;0.30;;;3.20;99.90;;;;;;5034691;28;20107;-75
2022/01/14 09:25:02;;;;;;;0.50;0.50;;;3.40;99.90;;;;;;5052522;28;20017;-76
2022/01/14 09:27:29;;;;;;;0.25;0.25;;;3.60;99.90;;;;;;5052776;28;20025;-75
2022/01/14 09:29:56;;;;;;;0.35;0.35;;;3.70;99.90;;;;;;5034418;28;20513;-75
2022/01/14 09:32:22;;;;;;;0.30;0.30;;;3.80;99.90;;;;;;5033900;28;20480;-75
2022/01/14 09:34:48;;;;;;;0.30;0.30;;;3.80;99.90;;;;;;5052141;28;20074;-75
2022/01/14 09:37:14;;;;;;;0.28;0.28;;;3.90;99.90;;;;;;5033863;28;20108;-75
2022/01/14 09:39:43;;;;;;;0.30;0.30;;;4.00;99.90;;;;;;5033984;28;20145;-75
2022/01/14 09:42:16;;;;;;;0.30;0.30;;;4.20;99.90;;;;;;5034215;28;20079;-76
2022/01/14 09:44:43;;;;;;;0.30;0.30;;;4.70;99.90;;;;;;5032829;28;20053;-76
2022/01/14 09:47:14;;;;;;;0.30;0.30;;;4.90;99.90;;;;;;5051283;28;20511;-76
2022/01/14 09:49:40;;;;;;;1.95;1.08;;;5.30;99.90;;;;;;5051438;28;20021;-76
2022/01/14 09:52:06;;;;;;;0.40;0.40;;;5.60;99.90;;;;;;5033776;28;20040;-76
2022/01/14 09:54:32;;;;;;;0.20;0.20;;;5.90;99.90;;;;;;5033624;28;20021;-75
2022/01/14 09:56:58;;;;;;;0.20;0.20;;;6.30;99.90;;;;;;5017558;28;20029;-75
2022/01/14 09:59:24;;;;;;;0.75;0.75;;;6.80;98.50;;;;;;5034367;28;20575;-74
2022/01/14 10:01:50;;;;;;;0.20;0.20;;;7.00;96.10;;;;;;5051702;28;20075;-74
2022/01/14 10:04:19;;;;;;;2.08;1.40;;;7.00;94.90;;;;;;5051601;28;20404;-74
2022/01/14 10:06:54;;;;;;;0.88;0.88;;;7.00;94.00;;;;;;5033170;28;20064;-74
2022/01/14 10:09:22;;;;;;;0.20;0.20;;;7.40;92.80;;;;;;5034021;28;20107;-75
2022/01/14 10:12:10;;;;;;;0.20;0.20;;;7.80;91.70;;;;;;5034048;28;20029;-75
2022/01/14 10:14:39;;;;;;;0.20;0.20;;;8.50;91.10;;;;;;5034266;28;20032;-75
2022/01/14 10:17:07;;;;;;;0.10;0.10;;;9.10;90.00;;;;;;5054693;28;20036;-75
2022/01/14 10:19:40;;;;;;;0.20;0.20;;;9.80;84.20;;;;;;5054992;28;20074;-76
2022/01/14 10:22:29;;;;;;;0.10;0.10;;;10.50;80.90;;;;;;5037070;28;20311;-75
2022/01/14 10:25:06;;;;;;;0.28;0.28;;;11.30;74.90;;;;;;5053301;28;20560;-75
2022/01/14 10:27:39;;;;;;;0.30;0.30;;;11.80;71.40;;;;;;5037148;28;20033;-75
2022/01/14 10:30:13;;;;;;;0.30;0.30;;;12.10;68.80;;;;;;5054734;28;20362;-75
2022/01/14 10:32:41;;;;;;;0.10;0.10;;;12.30;68.20;;;;;;5055076;28;20033;-75
2022/01/14 10:35:10;;;;;;;0.70;0.47;;;12.70;65.70;;;;;;5038230;28;20025;-74
2022/01/14 10:37:36;;;;;;;0.10;0.10;;;12.70;64.40;;;;;;5021628;28;20032;-77
2022/01/14 10:40:13;;;;;;;2.10;0.40;;;13.10;62.50;;;;;;5038888;28;20029;-79
2022/01/14 10:42:40;;;;;;;0.40;0.40;;;13.40;61.70;;;;;;5056106;28;20119;-78
2022/01/14 10:45:23;;;;;;;0.10;0.10;;;13.70;60.20;;;;;;5039208;28;20104;-78
2022/01/14 10:47:53;;;;;;;1.15;1.08;;;13.70;59.60;;;;;;5038988;28;20721;-78
2022/01/14 10:50:44;;;;;;;0.10;0.10;;;13.60;59.90;;;;;;5039039;28;20104;-78
2022/01/14 10:53:40;;;;;;;0.10;0.10;;;13.70;59.50;;;;;;5040220;28;20029;-77
2022/01/14 10:56:08;;;;;;;0.10;0.10;;;14.10;58.00;;;;;;5024555;28;20116;-78
2022/01/14 10:58:43;;;;;;;0.10;0.10;;;14.60;56.30;;;;;;5022305;28;20385;-78
2022/01/14 11:01:15;;;;;;;0.10;0.10;;;15.00;54.10;;;;;;5038499;28;20025;-77
2022/01/14 11:03:45;;;;;;;0.40;0.40;;;15.30;52.90;;;;;;5054960;28;20092;-77
2022/01/14 11:06:32;;;;;;;0.10;0.10;;;15.80;51.90;;;;;;5055240;28;20025;-77
2022/01/14 11:09:04;;;;;;;0.95;0.95;;;16.00;52.40;;;;;;5054794;28;20020;-76
2022/01/14 11:11:33;;;;;;;0.10;0.10;;;16.00;51.60;;;;;;5037725;28;20388;-77
2022/01/14 11:13:59;;;;;;;0.10;0.10;;;16.20;50.40;;;;;;5037299;28;20074;-76
2022/01/14 11:16:25;;;;;;;2.05;0.25;;;16.30;49.70;;;;;;5056188;28;20535;-77
2022/01/14 11:18:52;;;;;;;0.10;0.10;;;16.70;49.40;;;;;;5055748;28;20025;-77
2022/01/14 11:24:19;;;;;;;;;;;17.00;48.00;;;;;;5024664;28;20029;-77
2022/01/14 11:26:46;;;;;;;0.22;0.22;;;16.50;48.30;;;;;;5037666;28;19905;-77
2022/01/14 11:29:15;;;;;;;0.57;0.20;;;15.90;49.00;;;;;;5055799;28;20063;-77
2022/01/14 11:31:42;;;;;;;0.10;0.10;;;15.80;49.10;;;;;;5037321;28;20025;-77
2022/01/14 11:34:10;;;;;;;0.43;0.43;;;16.00;50.10;;;;;;5115577;22;20114;-75
2022/01/14 11:36:57;;;;;;;0.45;0.30;;;16.60;49.20;;;;;;5052946;28;20100;-76
2022/01/14 11:39:29;;;;;;;0.10;0.10;;;16.90;47.50;;;;;;5014609;28;20583;-76
2022/01/14 11:41:59;;;;;;;0.10;0.10;;;16.70;47.10;;;;;;5031355;28;20018;-75
2022/01/14 11:47:37;;;;;;;0.30;0.30;;;17.10;47.60;;;;;;5014596;28;20034;-75
2022/01/14 11:50:05;;;;;;;0.38;0.32;;;17.50;46.30;;;;;;5032773;28;20048;-75
2022/01/14 11:52:42;;;;;;;0.00;0.00;;;16.80;46.30;;;;;;5032777;28;20488;-75
2022/01/14 11:55:23;;;;;;;0.10;0.10;;;16.10;47.70;;;;;;5014764;28;20116;-75
2022/01/14 11:57:53;;;;;;;0.10;0.10;;;16.40;48.50;;;;;;5032525;28;20029;-75
2022/01/14 12:00:39;;;;;;;0.10;0.10;;;17.00;47.30;;;;;;5032886;28;20099;-76
2022/01/14 12:03:09;;;;;;;0.10;0.10;;;17.10;46.50;;;;;;5014837;28;20228;-75
2022/01/14 12:05:53;;;;;;;0.10;0.10;;;17.20;47.10;;;;;;5032338;28;20057;-76
2022/01/14 12:08:39;;;;;;;0.10;0.10;;;17.20;46.50;;;;;;5014743;28;20033;-76
2022/01/14 12:11:05;;;;;;;0.08;0.08;;;17.40;46.50;;;;;;5032327;28;20428;-76
2022/01/14 12:16:18;;;;;;;0.10;0.10;;;16.90;46.50;;;;;;5014078;28;20025;-75
2022/01/14 12:18:56;;;;;;;;;;;16.80;46.70;;;;;;5015520;28;20078;-75
2022/01/14 12:21:37;;;;;;;0.73;0.32;;;16.80;46.80;;;;;;5058905;28;19911;-75
2022/01/14 12:24:18;;;;;;;0.10;0.10;;;15.80;47.50;;;;;;5045012;28;20078;-75
2022/01/14 12:27:00;;;;;;;0.10;0.10;;;15.20;48.70;;;;;;5052038;28;20291;-75
2022/01/14 12:29:35;;;;;;;1.08;0.95;;;14.60;49.90;;;;;;5052590;28;20112;-75
2022/01/14 12:32:03;;;;;;;1.75;0.57;;;14.50;50.70;;;;;;5071667;28;20016;-75
2022/01/14 12:34:34;;;;;;;1.50;0.98;;;14.30;50.90;;;;;;5071752;28;20090;-75
2022/01/14 12:37:00;;;;;;;0.30;0.30;;;13.50;51.90;;;;;;5042904;28;20033;-75
2022/01/14 12:39:26;;;;;;;0.32;0.32;;;12.00;54.40;;;;;;5033458;28;20103;-74
2022/01/14 12:41:57;;;;;;;0.17;0.17;;;11.00;57.20;;;;;;5017366;28;20056;-75
2022/01/14 12:44:24;;;;;;;0.40;0.40;;;10.30;59.00;;;;;;5051949;28;20072;-75
2022/01/14 12:47:01;;;;;;;0.77;0.50;;;9.80;60.70;;;;;;5033436;28;20021;-74
2022/01/14 12:49:27;;;;;;;0.17;0.17;;;9.30;61.80;;;;;;5033580;28;20029;-75
2022/01/14 12:52:00;;;;;;;0.73;0.73;;;9.10;62.50;;;;;;5031917;28;20407;-74
2022/01/14 12:54:33;;;;;;;0.30;0.30;;;8.80;63.60;;;;;;5051660;28;20028;-75
2022/01/14 12:56:59;;;;;;;0.57;0.57;;;8.90;64.20;;;;;;5033396;28;20374;-75
2022/01/14 12:59:25;;;;;;;0.20;0.20;;;9.10;63.90;;;;;;5033761;28;20029;-77
2022/01/14 13:01:55;;;;;;;0.22;0.22;;;9.00;63.40;;;;;;5018633;28;20048;-78
2022/01/14 13:04:23;;;;;;;0.20;0.20;;;9.10;63.90;;;;;;5020457;28;20169;-78
2022/01/14 13:06:54;;;;;;;0.20;0.20;;;9.30;64.70;;;;;;5054884;28;20025;-78
2022/01/14 13:09:31;;;;;;;0.10;0.10;;;10.10;63.20;;;;;;5037184;28;20045;-79
2022/01/14 13:12:10;;;;;;;0.40;0.40;;;11.40;58.80;;;;;;5037126;28;20510;-78
2022/01/14 13:14:46;;;;;;;0.10;0.10;;;12.50;56.10;;;;;;5020817;28;20033;-79
2022/01/14 13:17:25;;;;;;;0.10;0.10;;;13.70;54.60;;;;;;5036498;28;20029;-78
2022/01/14 13:19:56;;;;;;;0.20;0.20;;;14.60;53.00;;;;;;5037173;28;20250;-78
2022/01/14 13:22:22;;;;;;;0.10;0.10;;;15.20;50.50;;;;;;5052750;28;20381;-77
2022/01/14 13:24:56;;;;;;;0.38;0.38;;;14.90;50.50;;;;;;5053939;28;20021;-78
2022/01/14 13:27:26;;;;;;;0.05;0.05;;;14.30;51.30;;;;;;5019584;28;20029;-77
2022/01/14 13:30:20;;;;;;;0.10;0.10;;;13.90;52.50;;;;;;5037219;28;20033;-78
2022/01/14 13:32:49;;;;;;;0.20;0.20;;;14.50;52.20;;;;;;5018436;28;20476;-75
2022/01/14 13:35:24;;;;;;;0.10;0.10;;;15.00;51.00;;;;;;5033300;28;20059;-75
2022/01/14 13:37:58;;;;;;;0.13;0.13;;;15.10;51.20;;;;;;5033550;28;20112;-75
2022/01/14 13:40:55;;;;;;;0.55;0.55;;;15.20;50.80;;;;;;5050804;28;20025;-75